sensor_id;sensor_type;location;lat;lon;timestamp;P1;durP1;ratioP1;P2;durP2;ratioP2
61553;SDS011;47425;51.976;5.326;2022-09-01T08:02:50;2.85;;;1.13;;
61553;SDS011;47425;51.976;5.326;2022-09-01T08:05:18;2.70;;;1.10;;
61553;SDS011;47425;51.976;5.326;2022-09-01T08:07:52;3.85;;;1.00;;
61553;SDS011;47425;51.976;5.326;2022-09-01T08:10:21;4.05;;;1.20;;
61553;SDS011;47425;51.976;5.326;2022-09-01T08:12:48;4.32;;;1.17;;
61553;SDS011;47425;51.976;5.326;2022-09-01T08:15:15;2.35;;;1.20;;
61553;SDS011;47425;51.976;5.326;2022-09-01T08:17:41;1.58;;;1.00;;
61553;SDS011;47425;51.976;5.326;2022-09-01T08:20:10;3.50;;;1.30;;
61553;SDS011;47425;51.976;5.326;2022-09-01T08:23:05;6.07;;;1.52;;
61553;SDS011;47425;51.976;5.326;2022-09-01T08:25:35;13.57;;;1.48;;
61553;SDS011;47425;51.976;5.326;2022-09-01T08:28:02;2.72;;;1.05;;
61553;SDS011;47425;51.976;5.326;2022-09-01T08:30:29;3.00;;;1.38;;
61553;SDS011;47425;51.976;5.326;2022-09-01T08:33:01;8.32;;;1.88;;
61553;SDS011;47425;51.976;5.326;2022-09-01T08:35:27;2.63;;;1.27;;
61553;SDS011;47425;51.976;5.326;2022-09-01T08:37:55;4.45;;;1.45;;
61553;SDS011;47425;51.976;5.326;2022-09-01T08:40:21;6.47;;;1.35;;
61553;SDS011;47425;51.976;5.326;2022-09-01T08:45:19;9.77;;;1.85;;
61553;SDS011;47425;51.976;5.326;2022-09-01T08:47:51;15.95;;;2.00;;
61553;SDS011;47425;51.976;5.326;2022-09-01T08:50:19;9.77;;;1.90;;
61553;SDS011;47425;51.976;5.326;2022-09-01T08:53:16;11.52;;;1.75;;
61553;SDS011;47425;51.976;5.326;2022-09-01T08:55:46;13.00;;;1.70;;
61553;SDS011;47425;51.976;5.326;2022-09-01T08:58:15;14.93;;;2.03;;
61553;SDS011;47425;51.976;5.326;2022-09-01T09:01:10;5.20;;;1.20;;
61553;SDS011;47425;51.976;5.326;2022-09-01T09:03:41;2.97;;;1.10;;
61553;SDS011;47425;51.976;5.326;2022-09-01T09:06:15;3.08;;;1.10;;
61553;SDS011;47425;51.976;5.326;2022-09-01T09:08:51;3.05;;;1.30;;
61553;SDS011;47425;51.976;5.326;2022-09-01T09:14:20;4.00;;;1.23;;
61553;SDS011;47425;51.976;5.326;2022-09-01T09:17:19;8.93;;;1.27;;
61553;SDS011;47425;51.976;5.326;2022-09-01T09:19:50;5.90;;;1.20;;
61553;SDS011;47425;51.976;5.326;2022-09-01T09:22:17;22.75;;;1.58;;
61553;SDS011;47425;51.976;5.326;2022-09-01T09:30:05;12.02;;;1.30;;
61553;SDS011;47425;51.976;5.326;2022-09-01T09:41:04;12.18;;;1.30;;
61553;SDS011;47425;51.976;5.326;2022-09-01T09:46:33;5.80;;;1.30;;
61553;SDS011;47425;51.976;5.326;2022-09-01T09:54:28;6.22;;;1.38;;
61553;SDS011;47425;51.976;5.326;2022-09-01T09:59:43;7.53;;;0.95;;
61553;SDS011;47425;51.976;5.326;2022-09-01T10:02:24;2.53;;;0.90;;
61553;SDS011;47425;51.976;5.326;2022-09-01T10:04:58;2.15;;;1.00;;
61553;SDS011;47425;51.976;5.326;2022-09-01T10:07:45;2.63;;;0.82;;
61553;SDS011;47425;51.976;5.326;2022-09-01T10:10:28;2.55;;;0.95;;
61553;SDS011;47425;51.976;5.326;2022-09-01T10:13:00;10.30;;;1.30;;
61553;SDS011;47425;51.976;5.326;2022-09-01T10:15:30;8.68;;;1.40;;
61553;SDS011;47425;51.976;5.326;2022-09-01T10:18:03;17.10;;;1.70;;
61553;SDS011;47425;51.976;5.326;2022-09-01T10:20:33;8.60;;;1.20;;
61553;SDS011;47425;51.976;5.326;2022-09-01T10:23:02;5.38;;;1.58;;
61553;SDS011;47425;51.976;5.326;2022-09-01T10:25:28;8.95;;;1.42;;
61553;SDS011;47425;51.976;5.326;2022-09-01T10:28:05;7.68;;;1.38;;
61553;SDS011;47425;51.976;5.326;2022-09-01T10:30:38;9.73;;;1.30;;
61553;SDS011;47425;51.976;5.326;2022-09-01T10:33:09;6.30;;;1.10;;
61553;SDS011;47425;51.976;5.326;2022-09-01T10:35:37;4.55;;;1.17;;
61553;SDS011;47425;51.976;5.326;2022-09-01T10:38:08;4.70;;;1.30;;
61553;SDS011;47425;51.976;5.326;2022-09-01T10:41:16;6.50;;;1.08;;
61553;SDS011;47425;51.976;5.326;2022-09-01T10:48:48;3.30;;;0.90;;
61553;SDS011;47425;51.976;5.326;2022-09-01T10:53:48;3.40;;;1.30;;
61553;SDS011;47425;51.976;5.326;2022-09-01T11:04:20;4.15;;;0.93;;
61553;SDS011;47425;51.976;5.326;2022-09-01T11:07:00;3.45;;;0.80;;
61553;SDS011;47425;51.976;5.326;2022-09-01T11:12:15;4.65;;;1.00;;
61553;SDS011;47425;51.976;5.326;2022-09-01T11:14:56;2.72;;;0.90;;
61553;SDS011;47425;51.976;5.326;2022-09-01T11:17:29;4.18;;;1.00;;
61553;SDS011;47425;51.976;5.326;2022-09-01T11:22:38;4.68;;;0.80;;
61553;SDS011;47425;51.976;5.326;2022-09-01T11:25:15;6.40;;;0.90;;
61553;SDS011;47425;51.976;5.326;2022-09-01T11:36:30;2.83;;;0.90;;
61553;SDS011;47425;51.976;5.326;2022-09-01T11:39:03;2.20;;;1.20;;
61553;SDS011;47425;51.976;5.326;2022-09-01T11:44:17;1.40;;;1.00;;
61553;SDS011;47425;51.976;5.326;2022-09-01T11:46:49;2.97;;;0.85;;
61553;SDS011;47425;51.976;5.326;2022-09-01T11:49:36;3.13;;;1.05;;
61553;SDS011;47425;51.976;5.326;2022-09-01T11:52:04;1.55;;;0.73;;
61553;SDS011;47425;51.976;5.326;2022-09-01T11:54:39;1.05;;;0.88;;
61553;SDS011;47425;51.976;5.326;2022-09-01T11:57:24;0.98;;;0.63;;
61553;SDS011;47425;51.976;5.326;2022-09-01T11:59:55;0.90;;;0.90;;
61553;SDS011;47425;51.976;5.326;2022-09-01T12:04:52;1.67;;;0.70;;
61553;SDS011;47425;51.976;5.326;2022-09-01T12:07:24;1.23;;;0.70;;
61553;SDS011;47425;51.976;5.326;2022-09-01T12:09:50;2.42;;;0.70;;
61553;SDS011;47425;51.976;5.326;2022-09-01T12:12:30;2.05;;;0.65;;
61553;SDS011;47425;51.976;5.326;2022-09-01T12:15:04;1.27;;;0.70;;
61553;SDS011;47425;51.976;5.326;2022-09-01T12:17:42;4.03;;;0.80;;
61553;SDS011;47425;51.976;5.326;2022-09-01T12:20:20;2.38;;;1.00;;
61553;SDS011;47425;51.976;5.326;2022-09-01T12:25:54;2.83;;;0.60;;
61553;SDS011;47425;51.976;5.326;2022-09-01T12:28:34;2.05;;;0.80;;
61553;SDS011;47425;51.976;5.326;2022-09-01T12:31:11;1.90;;;0.90;;
61553;SDS011;47425;51.976;5.326;2022-09-01T12:33:59;1.92;;;0.80;;
61553;SDS011;47425;51.976;5.326;2022-09-01T12:36:31;1.13;;;0.68;;
61553;SDS011;47425;51.976;5.326;2022-09-01T12:39:18;1.83;;;0.80;;
61553;SDS011;47425;51.976;5.326;2022-09-01T12:42:08;1.27;;;1.08;;
61553;SDS011;47425;51.976;5.326;2022-09-01T12:44:59;1.50;;;0.77;;
61553;SDS011;47425;51.976;5.326;2022-09-01T12:55:20;0.93;;;0.80;;
61553;SDS011;47425;51.976;5.326;2022-09-01T12:57:52;3.08;;;0.80;;
61553;SDS011;47425;51.976;5.326;2022-09-01T13:05:19;2.42;;;0.60;;
61553;SDS011;47425;51.976;5.326;2022-09-01T13:07:56;2.88;;;0.70;;
61553;SDS011;47425;51.976;5.326;2022-09-01T13:10:25;2.05;;;0.80;;
61553;SDS011;47425;51.976;5.326;2022-09-01T13:12:56;1.10;;;0.50;;
61553;SDS011;47425;51.976;5.326;2022-09-01T13:15:22;4.18;;;1.00;;
61553;SDS011;47425;51.976;5.326;2022-09-01T13:17:49;2.53;;;0.70;;
61553;SDS011;47425;51.976;5.326;2022-09-01T13:20:17;1.02;;;0.88;;
61553;SDS011;47425;51.976;5.326;2022-09-01T13:22:43;0.50;;;0.50;;
61553;SDS011;47425;51.976;5.326;2022-09-01T13:25:13;0.88;;;0.88;;
61553;SDS011;47425;51.976;5.326;2022-09-01T13:27:41;1.75;;;0.60;;
61553;SDS011;47425;51.976;5.326;2022-09-01T13:30:08;2.78;;;0.73;;
61553;SDS011;47425;51.976;5.326;2022-09-01T13:32:36;1.83;;;0.55;;
61553;SDS011;47425;51.976;5.326;2022-09-01T13:35:02;1.27;;;0.50;;
61553;SDS011;47425;51.976;5.326;2022-09-01T13:37:29;0.80;;;0.80;;
61553;SDS011;47425;51.976;5.326;2022-09-01T13:39:54;3.13;;;0.77;;
61553;SDS011;47425;51.976;5.326;2022-09-01T13:42:20;1.83;;;0.80;;
61553;SDS011;47425;51.976;5.326;2022-09-01T13:44:46;0.85;;;0.60;;
61553;SDS011;47425;51.976;5.326;2022-09-01T13:47:12;1.48;;;0.70;;
61553;SDS011;47425;51.976;5.326;2022-09-01T13:49:37;1.05;;;0.70;;
61553;SDS011;47425;51.976;5.326;2022-09-01T13:52:03;3.55;;;0.80;;
61553;SDS011;47425;51.976;5.326;2022-09-01T13:54:30;2.45;;;0.70;;
61553;SDS011;47425;51.976;5.326;2022-09-01T13:56:55;4.57;;;0.60;;
61553;SDS011;47425;51.976;5.326;2022-09-01T13:59:20;2.13;;;0.80;;
61553;SDS011;47425;51.976;5.326;2022-09-01T14:01:46;1.30;;;0.80;;
61553;SDS011;47425;51.976;5.326;2022-09-01T14:04:11;0.95;;;0.70;;
61553;SDS011;47425;51.976;5.326;2022-09-01T14:06:40;0.77;;;0.70;;
61553;SDS011;47425;51.976;5.326;2022-09-01T14:09:08;2.15;;;0.65;;
61553;SDS011;47425;51.976;5.326;2022-09-01T14:11:36;1.98;;;0.60;;
61553;SDS011;47425;51.976;5.326;2022-09-01T14:14:02;0.73;;;0.70;;
61553;SDS011;47425;51.976;5.326;2022-09-01T14:16:27;1.23;;;0.70;;
61553;SDS011;47425;51.976;5.326;2022-09-01T14:18:54;4.63;;;0.70;;
61553;SDS011;47425;51.976;5.326;2022-09-01T14:21:19;1.60;;;0.75;;
61553;SDS011;47425;51.976;5.326;2022-09-01T14:23:45;1.52;;;0.80;;
61553;SDS011;47425;51.976;5.326;2022-09-01T14:26:12;0.60;;;0.43;;
61553;SDS011;47425;51.976;5.326;2022-09-01T14:28:40;1.45;;;0.70;;
61553;SDS011;47425;51.976;5.326;2022-09-01T14:31:14;1.00;;;0.60;;
61553;SDS011;47425;51.976;5.326;2022-09-01T14:33:42;2.95;;;0.50;;
61553;SDS011;47425;51.976;5.326;2022-09-01T14:36:08;1.42;;;0.70;;
61553;SDS011;47425;51.976;5.326;2022-09-01T14:38:43;1.27;;;0.68;;
61553;SDS011;47425;51.976;5.326;2022-09-01T14:41:11;2.92;;;0.75;;
61553;SDS011;47425;51.976;5.326;2022-09-01T14:43:37;0.52;;;0.52;;
61553;SDS011;47425;51.976;5.326;2022-09-01T14:46:06;0.60;;;0.60;;
61553;SDS011;47425;51.976;5.326;2022-09-01T14:51:00;1.70;;;0.70;;
61553;SDS011;47425;51.976;5.326;2022-09-01T14:53:28;2.60;;;0.70;;
61553;SDS011;47425;51.976;5.326;2022-09-01T14:55:58;7.38;;;0.75;;
61553;SDS011;47425;51.976;5.326;2022-09-01T14:58:24;1.25;;;0.50;;
61553;SDS011;47425;51.976;5.326;2022-09-01T15:00:51;0.60;;;0.60;;
61553;SDS011;47425;51.976;5.326;2022-09-01T15:03:22;2.38;;;0.70;;
61553;SDS011;47425;51.976;5.326;2022-09-01T15:05:47;0.70;;;0.70;;
61553;SDS011;47425;51.976;5.326;2022-09-01T15:08:14;0.77;;;0.60;;
61553;SDS011;47425;51.976;5.326;2022-09-01T15:10:40;0.60;;;0.60;;
61553;SDS011;47425;51.976;5.326;2022-09-01T15:13:07;2.25;;;0.50;;
61553;SDS011;47425;51.976;5.326;2022-09-01T15:15:32;0.90;;;0.60;;
61553;SDS011;47425;51.976;5.326;2022-09-01T15:17:59;0.90;;;0.70;;
61553;SDS011;47425;51.976;5.326;2022-09-01T15:20:26;0.40;;;0.40;;
61553;SDS011;47425;51.976;5.326;2022-09-01T15:23:16;1.83;;;0.60;;
61553;SDS011;47425;51.976;5.326;2022-09-01T15:25:49;0.65;;;0.52;;
61553;SDS011;47425;51.976;5.326;2022-09-01T15:28:16;1.48;;;0.70;;
61553;SDS011;47425;51.976;5.326;2022-09-01T15:30:41;2.03;;;0.70;;
61553;SDS011;47425;51.976;5.326;2022-09-01T15:33:09;3.35;;;0.70;;
61553;SDS011;47425;51.976;5.326;2022-09-01T15:35:35;1.05;;;0.50;;
61553;SDS011;47425;51.976;5.326;2022-09-01T15:38:01;0.63;;;0.55;;
61553;SDS011;47425;51.976;5.326;2022-09-01T15:40:27;0.68;;;0.55;;
61553;SDS011;47425;51.976;5.326;2022-09-01T15:42:53;0.77;;;0.63;;
61553;SDS011;47425;51.976;5.326;2022-09-01T15:45:21;1.73;;;0.70;;
61553;SDS011;47425;51.976;5.326;2022-09-01T15:47:48;1.00;;;0.60;;
61553;SDS011;47425;51.976;5.326;2022-09-01T15:50:16;1.67;;;0.63;;
61553;SDS011;47425;51.976;5.326;2022-09-01T15:52:53;2.20;;;0.50;;
61553;SDS011;47425;51.976;5.326;2022-09-01T15:55:24;1.52;;;0.40;;
61553;SDS011;47425;51.976;5.326;2022-09-01T15:57:55;0.57;;;0.40;;
61553;SDS011;47425;51.976;5.326;2022-09-01T16:00:22;0.85;;;0.60;;
61553;SDS011;47425;51.976;5.326;2022-09-01T16:02:49;0.80;;;0.55;;
61553;SDS011;47425;51.976;5.326;2022-09-01T16:05:15;3.58;;;0.55;;
61553;SDS011;47425;51.976;5.326;2022-09-01T16:07:43;2.70;;;0.70;;
61553;SDS011;47425;51.976;5.326;2022-09-01T16:10:08;2.58;;;0.70;;
61553;SDS011;47425;51.976;5.326;2022-09-01T16:12:36;1.80;;;0.60;;
61553;SDS011;47425;51.976;5.326;2022-09-01T16:15:04;0.85;;;0.70;;
61553;SDS011;47425;51.976;5.326;2022-09-01T16:20:33;4.15;;;0.68;;
61553;SDS011;47425;51.976;5.326;2022-09-01T16:23:18;2.08;;;0.73;;
61553;SDS011;47425;51.976;5.326;2022-09-01T16:25:47;1.05;;;0.70;;
61553;SDS011;47425;51.976;5.326;2022-09-01T16:28:26;0.90;;;0.77;;
61553;SDS011;47425;51.976;5.326;2022-09-01T16:31:54;1.15;;;0.65;;
61553;SDS011;47425;51.976;5.326;2022-09-01T16:33:53;1.13;;;0.57;;
61553;SDS011;47425;51.976;5.326;2022-09-01T16:36:29;0.68;;;0.55;;
61553;SDS011;47425;51.976;5.326;2022-09-01T16:39:38;3.22;;;0.60;;
61553;SDS011;47425;51.976;5.326;2022-09-01T16:42:20;1.23;;;0.70;;
61553;SDS011;47425;51.976;5.326;2022-09-01T16:45:14;1.38;;;0.60;;
61553;SDS011;47425;51.976;5.326;2022-09-01T16:48:00;1.00;;;0.70;;
61553;SDS011;47425;51.976;5.326;2022-09-01T16:56:04;0.82;;;0.60;;
61553;SDS011;47425;51.976;5.326;2022-09-01T16:58:45;1.65;;;0.70;;
61553;SDS011;47425;51.976;5.326;2022-09-01T17:01:29;1.95;;;0.50;;
61553;SDS011;47425;51.976;5.326;2022-09-01T17:04:21;4.05;;;1.00;;
61553;SDS011;47425;51.976;5.326;2022-09-01T17:07:01;3.30;;;1.00;;
61553;SDS011;47425;51.976;5.326;2022-09-01T17:09:34;5.13;;;1.10;;
61553;SDS011;47425;51.976;5.326;2022-09-01T17:14:53;2.65;;;0.82;;
61553;SDS011;47425;51.976;5.326;2022-09-01T17:17:25;7.63;;;1.30;;
61553;SDS011;47425;51.976;5.326;2022-09-01T17:20:00;3.47;;;1.02;;
61553;SDS011;47425;51.976;5.326;2022-09-01T17:22:27;3.70;;;0.80;;
61553;SDS011;47425;51.976;5.326;2022-09-01T17:24:58;1.30;;;0.80;;
61553;SDS011;47425;51.976;5.326;2022-09-01T17:27:30;2.60;;;0.85;;
61553;SDS011;47425;51.976;5.326;2022-09-01T17:30:02;2.78;;;1.05;;
61553;SDS011;47425;51.976;5.326;2022-09-01T17:40:52;3.58;;;1.20;;
61553;SDS011;47425;51.976;5.326;2022-09-01T17:43:33;3.58;;;1.10;;
61553;SDS011;47425;51.976;5.326;2022-09-01T17:46:34;2.00;;;1.00;;
61553;SDS011;47425;51.976;5.326;2022-09-01T17:49:25;3.40;;;1.48;;
61553;SDS011;47425;51.976;5.326;2022-09-01T17:52:00;2.15;;;1.15;;
61553;SDS011;47425;51.976;5.326;2022-09-01T17:54:44;3.25;;;1.23;;
61553;SDS011;47425;51.976;5.326;2022-09-01T18:00:00;2.58;;;1.10;;
61553;SDS011;47425;51.976;5.326;2022-09-01T18:05:38;3.42;;;1.20;;
61553;SDS011;47425;51.976;5.326;2022-09-01T18:08:41;5.22;;;1.30;;
61553;SDS011;47425;51.976;5.326;2022-09-01T18:11:12;3.45;;;1.30;;
61553;SDS011;47425;51.976;5.326;2022-09-01T18:13:47;2.78;;;1.10;;
61553;SDS011;47425;51.976;5.326;2022-09-01T18:16:46;1.23;;;1.10;;
61553;SDS011;47425;51.976;5.326;2022-09-01T18:19:23;3.92;;;1.23;;
61553;SDS011;47425;51.976;5.326;2022-09-01T18:21:58;2.58;;;1.17;;
61553;SDS011;47425;51.976;5.326;2022-09-01T18:24:34;3.97;;;1.20;;
61553;SDS011;47425;51.976;5.326;2022-09-01T18:27:13;4.20;;;1.30;;
61553;SDS011;47425;51.976;5.326;2022-09-01T18:29:38;1.48;;;1.27;;
61553;SDS011;47425;51.976;5.326;2022-09-01T18:32:15;2.28;;;1.23;;
61553;SDS011;47425;51.976;5.326;2022-09-01T18:34:55;3.00;;;0.93;;
61553;SDS011;47425;51.976;5.326;2022-09-01T18:38:02;2.97;;;0.90;;
61553;SDS011;47425;51.976;5.326;2022-09-01T18:43:42;3.95;;;1.05;;
61553;SDS011;47425;51.976;5.326;2022-09-01T18:46:16;1.77;;;1.02;;
61553;SDS011;47425;51.976;5.326;2022-09-01T18:48:56;3.35;;;0.93;;
61553;SDS011;47425;51.976;5.326;2022-09-01T18:54:21;5.20;;;1.40;;
61553;SDS011;47425;51.976;5.326;2022-09-01T18:59:43;2.03;;;1.10;;
61553;SDS011;47425;51.976;5.326;2022-09-01T19:02:25;2.85;;;1.10;;
61553;SDS011;47425;51.976;5.326;2022-09-01T19:05:11;3.10;;;1.05;;
61553;SDS011;47425;51.976;5.326;2022-09-01T19:08:39;1.88;;;1.10;;
61553;SDS011;47425;51.976;5.326;2022-09-01T19:19:47;5.00;;;1.10;;
61553;SDS011;47425;51.976;5.326;2022-09-01T19:22:26;1.42;;;1.00;;
61553;SDS011;47425;51.976;5.326;2022-09-01T19:25:04;2.50;;;1.00;;
61553;SDS011;47425;51.976;5.326;2022-09-01T19:27:56;1.88;;;1.00;;
61553;SDS011;47425;51.976;5.326;2022-09-01T19:30:48;1.20;;;1.10;;
61553;SDS011;47425;51.976;5.326;2022-09-01T19:33:54;1.40;;;1.30;;
61553;SDS011;47425;51.976;5.326;2022-09-01T19:36:28;3.35;;;1.10;;
61553;SDS011;47425;51.976;5.326;2022-09-01T19:39:03;2.45;;;1.30;;
61553;SDS011;47425;51.976;5.326;2022-09-01T19:41:35;1.10;;;0.90;;
61553;SDS011;47425;51.976;5.326;2022-09-01T19:44:48;1.30;;;1.10;;
61553;SDS011;47425;51.976;5.326;2022-09-01T19:47:20;2.40;;;1.30;;
61553;SDS011;47425;51.976;5.326;2022-09-01T19:50:15;2.20;;;0.95;;
61553;SDS011;47425;51.976;5.326;2022-09-01T20:01:37;2.13;;;0.90;;
61553;SDS011;47425;51.976;5.326;2022-09-01T20:04:41;1.52;;;0.95;;
61553;SDS011;47425;51.976;5.326;2022-09-01T20:10:13;2.50;;;1.15;;
61553;SDS011;47425;51.976;5.326;2022-09-01T20:13:06;1.52;;;1.00;;
61553;SDS011;47425;51.976;5.326;2022-09-01T20:18:51;1.83;;;1.05;;
61553;SDS011;47425;51.976;5.326;2022-09-01T20:21:22;1.88;;;1.10;;
61553;SDS011;47425;51.976;5.326;2022-09-01T20:23:51;1.67;;;1.00;;
61553;SDS011;47425;51.976;5.326;2022-09-01T20:26:53;2.70;;;1.00;;
61553;SDS011;47425;51.976;5.326;2022-09-01T20:32:14;2.75;;;1.00;;
61553;SDS011;47425;51.976;5.326;2022-09-01T20:34:48;2.55;;;1.05;;
61553;SDS011;47425;51.976;5.326;2022-09-01T20:37:21;7.50;;;1.40;;
61553;SDS011;47425;51.976;5.326;2022-09-01T20:40:05;3.00;;;1.10;;
61553;SDS011;47425;51.976;5.326;2022-09-01T20:43:10;2.33;;;0.90;;
61553;SDS011;47425;51.976;5.326;2022-09-01T20:45:38;2.10;;;0.90;;
61553;SDS011;47425;51.976;5.326;2022-09-01T20:48:05;1.50;;;0.88;;
61553;SDS011;47425;51.976;5.326;2022-09-01T20:50:50;0.90;;;0.90;;
61553;SDS011;47425;51.976;5.326;2022-09-01T20:53:38;3.67;;;1.13;;
61553;SDS011;47425;51.976;5.326;2022-09-01T20:56:28;3.33;;;1.10;;
61553;SDS011;47425;51.976;5.326;2022-09-01T20:59:37;0.95;;;0.73;;
61553;SDS011;47425;51.976;5.326;2022-09-01T21:02:17;2.05;;;0.85;;
61553;SDS011;47425;51.976;5.326;2022-09-01T21:10:34;3.22;;;0.90;;
61553;SDS011;47425;51.976;5.326;2022-09-01T21:13:22;1.67;;;0.90;;
61553;SDS011;47425;51.976;5.326;2022-09-01T21:16:14;2.03;;;0.80;;
61553;SDS011;47425;51.976;5.326;2022-09-01T21:21:43;3.25;;;0.95;;
61553;SDS011;47425;51.976;5.326;2022-09-01T21:24:18;2.15;;;1.13;;
61553;SDS011;47425;51.976;5.326;2022-09-01T21:26:44;1.20;;;0.80;;
61553;SDS011;47425;51.976;5.326;2022-09-01T21:29:23;1.40;;;0.97;;
61553;SDS011;47425;51.976;5.326;2022-09-01T21:31:56;1.08;;;0.98;;
61553;SDS011;47425;51.976;5.326;2022-09-01T21:34:24;1.45;;;1.08;;
61553;SDS011;47425;51.976;5.326;2022-09-01T21:36:50;1.17;;;0.95;;
61553;SDS011;47425;51.976;5.326;2022-09-01T21:39:15;1.02;;;0.93;;
61553;SDS011;47425;51.976;5.326;2022-09-01T21:41:42;1.73;;;0.90;;
61553;SDS011;47425;51.976;5.326;2022-09-01T21:44:09;1.77;;;1.10;;
61553;SDS011;47425;51.976;5.326;2022-09-01T21:46:34;1.77;;;1.20;;
61553;SDS011;47425;51.976;5.326;2022-09-01T21:49:00;1.95;;;0.80;;
61553;SDS011;47425;51.976;5.326;2022-09-01T21:51:26;1.13;;;0.95;;
61553;SDS011;47425;51.976;5.326;2022-09-01T21:53:52;1.13;;;0.75;;
61553;SDS011;47425;51.976;5.326;2022-09-01T21:56:17;1.17;;;0.88;;
61553;SDS011;47425;51.976;5.326;2022-09-01T21:58:44;1.23;;;0.80;;
61553;SDS011;47425;51.976;5.326;2022-09-01T22:01:09;1.25;;;0.85;;
61553;SDS011;47425;51.976;5.326;2022-09-01T22:03:35;0.60;;;0.60;;
61553;SDS011;47425;51.976;5.326;2022-09-01T22:06:00;0.80;;;0.70;;
61553;SDS011;47425;51.976;5.326;2022-09-01T22:08:27;1.05;;;0.93;;
61553;SDS011;47425;51.976;5.326;2022-09-01T22:10:53;1.70;;;0.65;;
61553;SDS011;47425;51.976;5.326;2022-09-01T22:13:20;1.35;;;0.77;;
61553;SDS011;47425;51.976;5.326;2022-09-01T22:18:15;0.88;;;0.73;;
61553;SDS011;47425;51.976;5.326;2022-09-01T22:20:42;1.17;;;0.80;;
61553;SDS011;47425;51.976;5.326;2022-09-01T22:23:08;1.98;;;0.88;;
61553;SDS011;47425;51.976;5.326;2022-09-01T22:25:39;1.10;;;0.77;;
61553;SDS011;47425;51.976;5.326;2022-09-01T22:28:08;0.70;;;0.70;;
